Time;durP1;ratioP1;P1;durP2;ratioP2;P2;SDS_P1;SDS_P2;PMS_P1;PMS_P2;Temp;Humidity;BMP_temperature;BMP_pressure;BME280_temperature;BME280_humidity;BME280_pressure;Samples;Min_cycle;Max_cycle;Signal;HPM_P1;HPM_P2
2021/01/26 00:00:22;;;;;;;4.20;1.60;;;4.60;86.70;;;;;;4915563;29;20045;-69
2021/01/26 00:02:48;;;;;;;;;;;4.60;86.70;;;;;;4917420;29;20528;-69
2021/01/26 00:05:14;;;;;;;6.28;1.70;;;4.60;86.80;;;;;;4915503;29;19953;-69
2021/01/26 00:07:40;;;;;;;6.47;1.50;;;4.60;86.80;;;;;;4915279;29;20032;-69
2021/01/26 00:10:08;;;;;;;3.22;1.40;;;4.50;86.90;;;;;;4916924;29;20095;-69
2021/01/26 00:12:34;;;;;;;9.40;1.60;;;4.60;87.00;;;;;;4915474;29;20036;-69
2021/01/26 00:15:00;;;;;;;7.30;1.50;;;4.60;87.00;;;;;;4916744;29;20115;-69
2021/01/26 00:17:26;;;;;;;6.65;1.63;;;4.60;87.10;;;;;;4916499;29;20059;-69
2021/01/26 00:19:52;;;;;;;3.88;1.27;;;4.70;87.10;;;;;;4916336;29;20047;-69
2021/01/26 00:22:18;;;;;;;6.05;1.88;;;4.70;87.10;;;;;;4915933;29;20024;-69
2021/01/26 00:24:43;;;;;;;11.77;3.25;;;4.70;87.10;;;;;;4916482;29;20059;-69
2021/01/26 00:27:09;;;;;;;6.45;2.20;;;4.70;87.10;;;;;;4914987;29;20032;-69
2021/01/26 00:29:35;;;;;;;6.00;2.20;;;4.80;87.10;;;;;;4916304;29;20028;-69
2021/01/26 00:32:01;;;;;;;8.15;1.75;;;4.80;87.00;;;;;;4916290;29;20028;-68
2021/01/26 00:34:26;;;;;;;6.18;1.80;;;4.80;87.60;;;;;;4915031;29;20107;-69
2021/01/26 00:36:52;;;;;;;5.43;1.40;;;4.80;86.90;;;;;;4915804;29;20467;-69
2021/01/26 00:39:19;;;;;;;7.80;2.00;;;4.80;86.80;;;;;;4916420;29;20074;-69
2021/01/26 00:41:45;;;;;;;7.68;1.70;;;4.80;86.80;;;;;;4899322;29;20035;-69
2021/01/26 00:44:10;;;;;;;5.22;1.50;;;4.80;86.90;;;;;;4916284;29;20036;-69
2021/01/26 00:46:36;;;;;;;9.73;2.10;;;4.70;87.00;;;;;;4916756;29;20492;-69
2021/01/26 00:49:02;;;;;;;7.45;1.45;;;4.70;86.80;;;;;;4899089;29;20026;-69
2021/01/26 00:51:28;;;;;;;4.97;1.90;;;4.70;86.80;;;;;;4916102;29;20032;-69
2021/01/26 00:53:54;;;;;;;7.72;1.63;;;4.70;87.00;;;;;;4915887;29;20084;-70
2021/01/26 00:56:19;;;;;;;6.95;1.85;;;4.60;86.90;;;;;;4899045;29;20020;-69
2021/01/26 00:58:45;;;;;;;5.10;1.65;;;4.60;87.10;;;;;;4914647;29;20089;-69
2021/01/26 01:01:11;;;;;;;6.60;1.50;;;4.60;87.00;;;;;;4914497;29;20456;-69
2021/01/26 01:03:37;;;;;;;4.95;1.98;;;4.60;87.00;;;;;;4916018;29;20037;-69
2021/01/26 01:06:03;;;;;;;7.65;1.58;;;4.60;86.90;;;;;;4914572;29;20127;-69
2021/01/26 01:08:29;;;;;;;4.13;1.20;;;4.60;86.90;;;;;;4915863;29;20123;-69
2021/01/26 01:10:54;;;;;;;6.22;1.20;;;4.60;86.90;;;;;;4919866;29;20036;-69
2021/01/26 01:13:20;;;;;;;3.03;1.13;;;4.60;86.90;;;;;;4918095;29;20414;-69
2021/01/26 01:15:46;;;;;;;9.00;1.50;;;4.60;86.80;;;;;;4919554;29;20035;-69
2021/01/26 01:18:12;;;;;;;5.20;1.42;;;4.50;86.60;;;;;;4919621;29;20028;-69
2021/01/26 01:20:38;;;;;;;9.18;1.60;;;4.50;86.60;;;;;;4919246;29;20032;-69
2021/01/26 01:23:04;;;;;;;5.22;1.30;;;4.50;86.80;;;;;;4919260;29;20032;-69
2021/01/26 01:25:30;;;;;;;12.05;1.85;;;4.40;86.80;;;;;;4919223;29;20055;-69
2021/01/26 01:27:56;;;;;;;8.23;1.70;;;4.40;87.10;;;;;;4919092;29;20393;-69
2021/01/26 01:30:26;;;;;;;7.65;1.95;;;4.40;87.10;;;;;;4902007;29;20024;-69
2021/01/26 01:32:52;;;;;;;7.63;2.08;;;4.40;87.20;;;;;;4919056;29;20560;-69
2021/01/26 01:35:18;;;;;;;5.93;2.20;;;4.40;87.30;;;;;;4919470;29;20103;-69
2021/01/26 01:37:44;;;;;;;11.75;2.05;;;4.40;87.40;;;;;;4917830;29;20024;-69
2021/01/26 01:40:16;;;;;;;7.45;1.60;;;4.40;87.60;;;;;;4919039;29;20032;-69
2021/01/26 01:42:42;;;;;;;8.25;1.90;;;4.50;87.40;;;;;;4917712;29;20067;-69
2021/01/26 01:45:08;;;;;;;9.65;1.80;;;4.50;87.60;;;;;;4918898;29;20448;-69
2021/01/26 01:47:53;;;;;;;7.82;1.83;;;4.50;87.40;;;;;;4918921;29;20036;-69
2021/01/26 01:50:31;;;;;;;6.80;2.03;;;4.50;87.40;;;;;;4917649;29;20388;-69
2021/01/26 01:53:03;;;;;;;6.13;1.60;;;4.50;87.30;;;;;;4918728;29;20048;-69
2021/01/26 01:55:31;;;;;;;6.38;1.50;;;4.50;87.20;;;;;;4918914;29;20025;-69
2021/01/26 01:58:02;;;;;;;7.43;1.33;;;4.50;87.20;;;;;;4918877;29;20055;-69
2021/01/26 02:00:29;;;;;;;5.53;1.30;;;4.50;87.20;;;;;;4917447;29;20044;-70
2021/01/26 02:03:03;;;;;;;5.25;1.40;;;4.40;87.00;;;;;;4917374;29;20024;-69
2021/01/26 02:05:29;;;;;;;7.43;1.27;;;4.50;87.00;;;;;;4917347;29;20076;-69
2021/01/26 02:07:57;;;;;;;6.13;1.20;;;4.50;86.90;;;;;;4918617;29;20032;-70
2021/01/26 02:10:23;;;;;;;10.77;1.45;;;4.60;86.70;;;;;;4917704;29;20476;-70
2021/01/26 02:12:50;;;;;;;5.43;1.30;;;4.60;86.50;;;;;;4918498;29;20152;-70
2021/01/26 02:15:16;;;;;;;7.07;1.20;;;4.60;86.30;;;;;;4918440;29;20028;-70
2021/01/26 02:17:56;;;;;;;7.75;1.45;;;4.70;86.20;;;;;;4917569;29;20464;-70
2021/01/26 02:20:59;;;;;;;6.65;1.55;;;4.70;86.20;;;;;;4918386;29;20087;-70
2021/01/26 02:24:12;;;;;;;7.15;1.20;;;4.70;86.00;;;;;;4918229;29;20091;-69
2021/01/26 02:26:47;;;;;;;4.28;1.02;;;4.70;85.90;;;;;;4878593;29;20441;-69
2021/01/26 02:29:25;;;;;;;9.18;1.95;;;4.60;85.80;;;;;;4878572;29;20060;-69
2021/01/26 02:32:15;;;;;;;7.13;1.27;;;4.60;85.90;;;;;;4863091;29;20045;-70
2021/01/26 02:35:05;;;;;;;5.82;1.33;;;4.60;86.00;;;;;;4862901;29;20552;-70
2021/01/26 02:37:56;;;;;;;5.88;1.10;;;4.60;86.00;;;;;;4878772;29;20052;-70
2021/01/26 02:40:41;;;;;;;5.18;1.05;;;4.60;85.90;;;;;;4862858;29;20029;-70
2021/01/26 02:43:36;;;;;;;6.22;1.50;;;4.50;85.90;;;;;;4862714;29;20033;-69
2021/01/26 02:46:18;;;;;;;5.38;1.15;;;4.50;86.00;;;;;;4862823;29;20065;-70
2021/01/26 02:49:04;;;;;;;5.35;1.33;;;4.50;86.10;;;;;;4862787;29;20060;-70
2021/01/26 02:51:35;;;;;;;8.90;1.65;;;4.50;86.20;;;;;;4878560;29;20040;-69
2021/01/26 02:54:15;;;;;;;8.80;2.00;;;4.50;86.20;;;;;;4862750;29;20040;-69
2021/01/26 02:57:06;;;;;;;8.07;1.77;;;4.50;86.20;;;;;;4870920;29;20369;-69
2021/01/26 02:59:50;;;;;;;5.38;1.17;;;4.50;86.20;;;;;;4917498;29;20032;-69
2021/01/26 03:02:22;;;;;;;7.97;1.25;;;4.50;86.00;;;;;;4917620;29;20390;-69
2021/01/26 03:05:10;;;;;;;9.57;1.60;;;4.60;86.00;;;;;;4916519;29;20076;-69
2021/01/26 03:07:42;;;;;;;4.45;1.20;;;4.60;85.90;;;;;;4916362;29;20033;-69
2021/01/26 03:10:13;;;;;;;7.90;1.77;;;4.70;85.90;;;;;;4917759;29;20039;-70
2021/01/26 03:12:43;;;;;;;4.90;1.02;;;4.70;85.90;;;;;;4916492;29;20043;-69
2021/01/26 03:15:09;;;;;;;6.97;1.10;;;4.80;85.90;;;;;;4916043;29;20138;-69
2021/01/26 03:17:39;;;;;;;7.07;1.13;;;4.80;85.90;;;;;;4917984;29;20032;-70
2021/01/26 03:20:15;;;;;;;6.68;1.35;;;4.80;85.70;;;;;;4916260;29;20040;-70
2021/01/26 03:22:45;;;;;;;4.85;1.10;;;4.80;85.70;;;;;;4916429;29;20035;-69
2021/01/26 03:25:12;;;;;;;5.72;1.27;;;4.80;85.80;;;;;;4917699;29;20054;-70
2021/01/26 03:27:42;;;;;;;4.00;1.20;;;4.70;85.90;;;;;;4916312;29;20036;-69
2021/01/26 03:30:12;;;;;;;5.20;1.27;;;4.70;86.10;;;;;;4916055;29;20031;-70
2021/01/26 03:32:45;;;;;;;6.03;1.20;;;4.60;86.30;;;;;;4915499;29;20051;-69
2021/01/26 03:35:11;;;;;;;10.00;1.20;;;4.50;86.40;;;;;;4916143;29;20070;-69
2021/01/26 03:37:39;;;;;;;7.07;1.48;;;4.50;86.50;;;;;;4916190;29;20036;-69
2021/01/26 03:40:06;;;;;;;6.55;1.05;;;4.40;86.60;;;;;;4917245;29;20481;-70
2021/01/26 03:42:33;;;;;;;7.03;1.45;;;4.40;86.70;;;;;;4915742;29;20560;-69
2021/01/26 03:44:59;;;;;;;4.13;0.82;;;4.30;86.80;;;;;;4917241;29;20036;-69
2021/01/26 03:47:54;;;;;;;10.55;1.08;;;4.30;86.80;;;;;;4917032;29;20091;-70
2021/01/26 03:50:47;;;;;;;7.53;1.20;;;4.30;87.10;;;;;;4916869;29;20040;-69
2021/01/26 03:53:19;;;;;;;7.38;1.35;;;4.30;87.10;;;;;;4915337;29;20035;-69
2021/01/26 03:56:00;;;;;;;7.60;1.00;;;4.30;87.10;;;;;;4915488;29;20036;-69
2021/01/26 03:58:44;;;;;;;6.97;1.30;;;4.30;87.10;;;;;;4915446;29;20063;-69
2021/01/26 04:01:49;;;;;;;6.50;1.38;;;4.30;87.10;;;;;;4916555;29;20119;-69
2021/01/26 04:04:36;;;;;;;6.88;1.05;;;4.30;87.00;;;;;;4908206;29;20149;-69
2021/01/26 04:07:17;;;;;;;11.88;1.77;;;4.40;87.10;;;;;;4916813;29;20024;-69
2021/01/26 04:09:51;;;;;;;8.23;1.20;;;4.40;87.20;;;;;;4915757;29;20021;-69
2021/01/26 04:12:21;;;;;;;5.80;1.58;;;4.40;87.10;;;;;;4915544;29;20024;-69
2021/01/26 04:15:00;;;;;;;10.15;1.75;;;4.40;87.30;;;;;;4916818;29;20107;-69
2021/01/26 04:17:33;;;;;;;4.57;1.13;;;4.40;87.30;;;;;;4915384;29;20031;-69
2021/01/26 04:20:08;;;;;;;6.70;1.33;;;4.40;87.20;;;;;;4915327;29;20502;-69
2021/01/26 04:22:35;;;;;;;7.28;1.40;;;4.50;87.20;;;;;;4916467;29;20032;-69
2021/01/26 04:25:19;;;;;;;8.05;2.08;;;4.40;87.10;;;;;;4915334;29;20031;-69
2021/01/26 04:27:44;;;;;;;7.47;1.60;;;4.50;87.20;;;;;;4915231;29;20028;-69
2021/01/26 04:30:10;;;;;;;7.05;1.50;;;4.60;87.30;;;;;;4915083;29;20119;-69
2021/01/26 04:32:36;;;;;;;7.18;1.35;;;4.60;87.30;;;;;;4916633;29;20035;-69
2021/01/26 04:35:02;;;;;;;8.48;1.30;;;4.60;87.20;;;;;;4915158;29;20024;-68
2021/01/26 04:37:27;;;;;;;10.05;1.77;;;4.60;87.20;;;;;;4899301;29;20503;-69
2021/01/26 04:39:53;;;;;;;7.55;1.73;;;4.60;87.30;;;;;;4916436;29;20073;-69
2021/01/26 04:42:22;;;;;;;10.75;1.63;;;4.50;87.40;;;;;;4917327;29;20027;-69
2021/01/26 04:45:12;;;;;;;6.15;1.20;;;4.50;87.60;;;;;;4920430;29;20032;-69
2021/01/26 04:48:03;;;;;;;6.97;1.60;;;4.50;87.50;;;;;;4918700;29;20456;-68
2021/01/26 04:50:56;;;;;;;13.00;1.60;;;4.50;87.50;;;;;;4918746;29;20028;-69
2021/01/26 04:53:57;;;;;;;6.00;1.33;;;4.50;87.50;;;;;;4918606;29;20531;-69
2021/01/26 04:57:11;;;;;;;10.20;1.45;;;4.50;87.60;;;;;;4920452;29;20021;-69
2021/01/26 05:00:28;;;;;;;8.97;1.73;;;4.50;87.60;;;;;;4894297;29;20056;-69
2021/01/26 05:02:59;;;;;;;5.90;1.27;;;4.60;87.70;;;;;;4903219;29;20445;-69
2021/01/26 05:05:26;;;;;;;7.10;1.35;;;4.60;87.60;;;;;;4919848;29;20103;-69
2021/01/26 05:07:59;;;;;;;8.13;1.20;;;4.60;87.50;;;;;;4919873;29;20111;-69
2021/01/26 05:10:56;;;;;;;6.55;1.35;;;4.60;87.50;;;;;;4919829;29;20028;-69
2021/01/26 05:13:36;;;;;;;9.55;1.60;;;4.70;87.40;;;;;;4919291;29;20103;-69
2021/01/26 05:16:16;;;;;;;8.05;1.98;;;4.70;87.40;;;;;;4918592;29;20476;-69
2021/01/26 05:18:48;;;;;;;7.55;1.45;;;4.80;87.30;;;;;;4918300;29;20118;-69
2021/01/26 05:21:36;;;;;;;6.35;1.50;;;4.80;87.20;;;;;;4918412;29;20123;-68
2021/01/26 05:24:28;;;;;;;9.75;1.70;;;4.90;87.30;;;;;;4883925;29;20040;-69
2021/01/26 05:26:54;;;;;;;8.02;1.70;;;4.90;87.30;;;;;;4918375;29;20106;-70
2021/01/26 05:29:19;;;;;;;7.53;1.40;;;4.90;87.30;;;;;;4918098;29;20024;-69
2021/01/26 05:31:48;;;;;;;12.20;1.48;;;4.90;87.30;;;;;;4918282;29;20032;-69
2021/01/26 05:34:17;;;;;;;7.40;1.67;;;5.00;87.30;;;;;;4918019;29;20174;-69
2021/01/26 05:36:45;;;;;;;6.47;1.17;;;5.00;87.30;;;;;;4919390;29;20068;-69
2021/01/26 05:39:41;;;;;;;10.60;1.65;;;5.00;87.30;;;;;;4919286;29;20028;-69
2021/01/26 05:42:07;;;;;;;7.45;1.50;;;5.10;87.30;;;;;;4918022;29;20035;-69
2021/01/26 05:44:36;;;;;;;5.55;1.20;;;5.00;87.30;;;;;;4917929;29;20024;-69
2021/01/26 05:47:26;;;;;;;4.28;1.10;;;5.10;87.30;;;;;;4918124;29;20028;-69
2021/01/26 05:49:52;;;;;;;8.32;1.80;;;5.10;87.30;;;;;;4919206;29;20103;-69
2021/01/26 05:52:20;;;;;;;7.82;1.40;;;5.10;87.30;;;;;;4918922;29;20468;-69
2021/01/26 05:54:57;;;;;;;5.82;1.35;;;5.10;87.20;;;;;;4918298;29;20540;-69
2021/01/26 05:57:35;;;;;;;5.35;1.30;;;5.10;87.30;;;;;;4917753;29;20106;-69
2021/01/26 06:00:22;;;;;;;9.75;1.50;;;5.10;87.30;;;;;;4918814;29;20135;-69
2021/01/26 06:02:48;;;;;;;11.38;1.83;;;5.10;87.20;;;;;;4917783;29;20365;-69
2021/01/26 06:05:23;;;;;;;7.60;1.50;;;5.10;87.30;;;;;;4919120;29;20111;-69
2021/01/26 06:08:09;;;;;;;6.78;1.27;;;5.10;87.30;;;;;;4919522;29;20045;-69
2021/01/26 06:10:36;;;;;;;8.18;1.50;;;5.10;87.30;;;;;;4917524;29;20172;-69
2021/01/26 06:13:03;;;;;;;9.00;2.10;;;5.10;87.30;;;;;;4917593;29;20043;-70
2021/01/26 06:15:35;;;;;;;7.25;1.40;;;5.10;87.20;;;;;;4919023;29;20047;-69
2021/01/26 06:18:27;;;;;;;4.93;0.90;;;5.10;87.10;;;;;;4918808;29;20084;-69
2021/01/26 06:21:11;;;;;;;6.93;1.70;;;5.10;87.20;;;;;;4915768;29;20036;-70
2021/01/26 06:23:38;;;;;;;7.75;1.30;;;5.10;87.10;;;;;;4918768;29;20028;-69
2021/01/26 06:26:07;;;;;;;5.18;0.95;;;5.00;87.10;;;;;;4917700;29;20028;-70
2021/01/26 06:29:12;;;;;;;5.78;1.13;;;5.00;87.10;;;;;;4917181;29;20396;-70
2021/01/26 06:31:50;;;;;;;6.55;1.48;;;5.10;87.20;;;;;;4917037;29;20120;-69
2021/01/26 06:34:24;;;;;;;5.65;1.45;;;5.00;87.20;;;;;;4917272;29;20389;-69
2021/01/26 06:37:27;;;;;;;9.05;1.50;;;5.00;87.80;;;;;;4918941;29;20031;-69
2021/01/26 06:40:10;;;;;;;6.10;1.05;;;5.10;87.30;;;;;;4918240;29;20036;-69
2021/01/26 06:43:20;;;;;;;4.22;1.33;;;5.10;87.20;;;;;;4918343;29;20477;-68
2021/01/26 06:46:02;;;;;;;7.80;1.30;;;5.10;87.10;;;;;;4916072;29;20490;-69
2021/01/26 06:48:57;;;;;;;4.90;1.20;;;5.20;87.20;;;;;;4918847;29;20039;-70
2021/01/26 06:51:32;;;;;;;7.68;1.52;;;5.20;87.20;;;;;;4918234;29;20036;-69
2021/01/26 06:54:31;;;;;;;10.10;1.45;;;5.20;87.20;;;;;;4916739;29;20075;-69
2021/01/26 06:57:33;;;;;;;9.68;1.90;;;5.20;87.30;;;;;;4916788;29;20067;-69
2021/01/26 07:00:19;;;;;;;5.47;1.30;;;5.20;87.30;;;;;;4917895;29;20067;-68
2021/01/26 07:03:26;;;;;;;5.97;1.10;;;5.10;87.30;;;;;;4900990;29;20119;-69
2021/01/26 07:06:18;;;;;;;5.05;1.60;;;5.20;87.40;;;;;;4915680;29;20047;-69
2021/01/26 07:09:01;;;;;;;8.20;1.60;;;5.10;87.30;;;;;;4917856;29;20029;-69
2021/01/26 07:11:40;;;;;;;7.35;1.30;;;5.20;87.40;;;;;;4916850;29;20050;-69
2021/01/26 07:14:27;;;;;;;7.45;1.45;;;5.10;87.30;;;;;;4900527;29;20032;-69
2021/01/26 07:17:03;;;;;;;6.03;1.50;;;5.20;87.50;;;;;;4917782;29;20504;-69
2021/01/26 07:19:34;;;;;;;5.18;1.10;;;5.10;87.50;;;;;;4916311;29;20122;-69
2021/01/26 07:22:18;;;;;;;4.38;1.15;;;5.20;87.60;;;;;;4916308;29;20044;-69
2021/01/26 07:24:50;;;;;;;;;;;5.20;87.50;;;;;;4918010;29;20040;-69
2021/01/26 07:27:48;;;;;;;5.90;1.63;;;5.20;87.50;;;;;;4918124;29;19918;-70
2021/01/26 07:30:20;;;;;;;9.57;1.50;;;5.20;87.50;;;;;;4916143;29;20043;-69
2021/01/26 07:33:06;;;;;;;6.07;1.75;;;5.20;87.50;;;;;;4900461;29;20469;-69
2021/01/26 07:35:43;;;;;;;7.40;1.42;;;5.20;87.60;;;;;;4917401;29;20028;-69
2021/01/26 07:38:17;;;;;;;5.88;1.20;;;5.20;87.60;;;;;;4900186;29;20051;-70
2021/01/26 07:40:50;;;;;;;5.57;1.30;;;5.20;87.60;;;;;;4915848;29;20440;-69
2021/01/26 07:44:08;;;;;;;4.38;1.88;;;5.20;87.70;;;;;;4917275;29;20432;-69
2021/01/26 07:46:41;;;;;;;5.40;1.13;;;5.20;87.70;;;;;;4861893;29;20024;-69
2021/01/26 07:49:27;;;;;;;3.00;0.90;;;5.20;87.70;;;;;;4877351;29;20037;-69
2021/01/26 07:51:57;;;;;;;2.33;1.08;;;5.20;87.70;;;;;;4877212;29;20029;-69
2021/01/26 07:54:45;;;;;;;3.60;1.02;;;5.20;87.70;;;;;;4877386;29;20486;-69
2021/01/26 07:57:11;;;;;;;6.18;1.10;;;5.20;87.70;;;;;;4877150;29;20097;-70
2021/01/26 07:59:52;;;;;;;7.22;0.95;;;5.20;87.70;;;;;;4877207;29;20417;-70
2021/01/26 08:02:26;;;;;;;3.17;0.75;;;5.20;87.80;;;;;;4877355;29;20036;-70
2021/01/26 08:04:52;;;;;;;5.30;0.73;;;5.20;87.70;;;;;;4877209;29;20134;-70
2021/01/26 08:07:25;;;;;;;5.72;1.10;;;5.20;87.70;;;;;;4877764;29;20052;-70
2021/01/26 08:09:53;;;;;;;1.88;1.05;;;5.10;87.70;;;;;;4877239;29;20525;-70
2021/01/26 08:12:37;;;;;;;3.85;0.82;;;5.10;87.70;;;;;;4877187;29;20041;-70
2021/01/26 08:15:14;;;;;;;5.70;1.58;;;5.20;88.00;;;;;;4877043;29;20044;-70
2021/01/26 08:17:41;;;;;;;4.15;1.00;;;5.10;88.40;;;;;;4877030;29;20055;-70
2021/01/26 08:20:25;;;;;;;3.72;1.00;;;5.10;87.80;;;;;;4878933;29;20062;-70
2021/01/26 08:23:04;;;;;;;11.82;5.07;;;5.00;87.70;;;;;;4916404;29;20484;-71
2021/01/26 08:25:43;;;;;;;2.92;1.50;;;5.00;87.80;;;;;;4917204;29;20031;-71
2021/01/26 08:28:30;;;;;;;4.07;1.10;;;5.00;87.90;;;;;;4915574;29;20028;-71
2021/01/26 08:30:56;;;;;;;4.57;1.20;;;5.00;87.80;;;;;;4915205;29;20087;-71
2021/01/26 08:33:25;;;;;;;2.60;0.90;;;5.10;87.80;;;;;;4916622;29;20111;-71
2021/01/26 08:36:27;;;;;;;4.85;1.30;;;5.10;87.70;;;;;;4915239;29;20028;-71
2021/01/26 08:38:58;;;;;;;5.75;0.90;;;5.10;87.70;;;;;;4916463;29;20032;-69
2021/01/26 08:41:41;;;;;;;3.95;1.00;;;5.10;87.60;;;;;;4915336;29;20036;-71
2021/01/26 08:44:26;;;;;;;3.03;1.00;;;5.20;87.70;;;;;;4915236;29;20056;-71
2021/01/26 08:46:53;;;;;;;3.85;0.90;;;5.30;87.60;;;;;;4892853;29;20040;-71
2021/01/26 08:49:32;;;;;;;2.83;1.08;;;5.30;87.40;;;;;;4916732;29;20095;-71
2021/01/26 08:52:19;;;;;;;4.40;0.90;;;5.40;87.10;;;;;;4916361;29;20036;-68
2021/01/26 08:54:45;;;;;;;5.38;0.90;;;5.40;87.10;;;;;;4916327;29;20059;-70
2021/01/26 08:57:22;;;;;;;3.33;0.80;;;5.40;86.90;;;;;;4916355;29;20063;-70
2021/01/26 08:59:48;;;;;;;5.07;1.20;;;5.50;87.00;;;;;;4916177;29;20056;-71
2021/01/26 09:02:36;;;;;;;2.97;1.05;;;5.50;86.90;;;;;;4915053;29;20028;-70
2021/01/26 09:05:02;;;;;;;3.28;1.17;;;5.60;86.80;;;;;;4918284;29;20036;-75
2021/01/26 09:07:46;;;;;;;2.28;1.13;;;5.60;86.60;;;;;;4915366;29;20384;-69
2021/01/26 09:10:48;;;;;;;2.53;0.90;;;5.70;86.60;;;;;;4915105;29;20032;-70
2021/01/26 09:13:16;;;;;;;2.83;0.95;;;5.70;86.40;;;;;;4916279;29;20055;-69
2021/01/26 09:15:52;;;;;;;5.32;0.98;;;5.80;86.30;;;;;;4916283;29;20055;-68
2021/01/26 09:18:20;;;;;;;1.77;0.80;;;5.80;86.20;;;;;;4916349;29;20107;-69
2021/01/26 09:20:49;;;;;;;6.28;0.93;;;5.80;86.20;;;;;;4915041;29;20084;-68
2021/01/26 09:23:15;;;;;;;3.10;0.93;;;5.80;86.10;;;;;;4916234;29;20036;-69
2021/01/26 09:25:45;;;;;;;2.83;1.08;;;5.80;86.00;;;;;;4916604;29;20425;-69
2021/01/26 09:28:18;;;;;;;3.50;0.90;;;5.90;86.10;;;;;;4914964;29;20083;-69
2021/01/26 09:30:47;;;;;;;2.10;0.80;;;5.90;86.10;;;;;;4917564;29;20047;-68
2021/01/26 09:33:12;;;;;;;4.32;0.95;;;6.00;86.10;;;;;;4919538;29;20020;-69
2021/01/26 09:35:52;;;;;;;3.08;1.20;;;6.00;86.00;;;;;;4919615;29;20392;-70
2021/01/26 09:38:34;;;;;;;3.10;1.00;;;6.10;85.90;;;;;;4917899;29;20032;-69
2021/01/26 09:41:03;;;;;;;3.58;1.20;;;6.20;85.80;;;;;;4919304;29;20024;-70
2021/01/26 09:43:43;;;;;;;3.15;1.00;;;6.30;85.60;;;;;;4919414;29;20024;-70
2021/01/26 09:46:13;;;;;;;2.83;1.20;;;6.30;85.40;;;;;;4917886;29;20032;-70
2021/01/26 09:48:40;;;;;;;4.63;1.20;;;6.30;85.20;;;;;;4917931;29;20067;-70
2021/01/26 09:51:11;;;;;;;2.70;0.90;;;6.40;85.10;;;;;;4918596;29;20476;-70
2021/01/26 09:53:38;;;;;;;4.72;1.27;;;6.40;85.00;;;;;;4918994;29;20028;-70
2021/01/26 09:56:05;;;;;;;3.40;1.13;;;6.40;84.90;;;;;;4919566;29;20056;-71
2021/01/26 10:01:53;;;;;;;9.70;1.30;;;6.30;84.80;;;;;;4911024;29;20058;-69
2021/01/26 10:04:20;;;;;;;3.85;1.30;;;6.20;84.70;;;;;;4918990;29;20024;-70
2021/01/26 10:06:51;;;;;;;4.78;1.13;;;6.20;84.90;;;;;;4919083;29;20024;-70
2021/01/26 10:09:27;;;;;;;6.32;1.48;;;6.10;84.90;;;;;;4919304;29;20028;-70
2021/01/26 10:12:14;;;;;;;5.35;0.93;;;6.20;85.00;;;;;;4919009;29;20020;-70
2021/01/26 10:14:39;;;;;;;2.30;0.90;;;6.20;85.00;;;;;;4918732;29;20032;-70
2021/01/26 10:17:12;;;;;;;4.78;1.08;;;6.30;85.00;;;;;;4917477;29;20023;-71
2021/01/26 10:19:38;;;;;;;3.58;0.95;;;6.30;84.90;;;;;;4917392;29;20024;-71
2021/01/26 10:22:11;;;;;;;4.32;1.02;;;6.40;84.80;;;;;;4918633;29;20034;-71
2021/01/26 10:24:38;;;;;;;3.17;1.08;;;6.40;84.70;;;;;;4918671;29;20107;-71
2021/01/26 10:27:24;;;;;;;5.60;0.80;;;6.40;84.50;;;;;;4917221;29;20075;-71
2021/01/26 10:30:05;;;;;;;3.60;1.02;;;6.50;84.60;;;;;;4917055;29;20448;-71
2021/01/26 10:32:44;;;;;;;3.40;1.10;;;6.50;84.50;;;;;;4918134;29;20448;-70
2021/01/26 10:35:35;;;;;;;1.65;0.80;;;6.50;84.40;;;;;;4918316;29;20116;-71
2021/01/26 10:38:27;;;;;;;3.95;1.30;;;6.60;84.30;;;;;;4918323;29;20381;-71
2021/01/26 10:41:10;;;;;;;3.45;1.65;;;6.60;84.00;;;;;;4918093;29;20476;-70
2021/01/26 10:43:36;;;;;;;3.28;1.13;;;6.60;84.00;;;;;;4916912;29;20030;-70
2021/01/26 10:46:02;;;;;;;6.40;1.20;;;6.60;83.80;;;;;;4916805;29;20088;-70
2021/01/26 10:48:33;;;;;;;3.38;1.20;;;6.70;83.70;;;;;;4916769;29;20103;-70
2021/01/26 10:51:14;;;;;;;5.20;1.42;;;6.70;83.40;;;;;;4918008;29;20103;-70
2021/01/26 10:53:43;;;;;;;3.45;1.20;;;6.80;83.30;;;;;;4917728;29;20122;-70
2021/01/26 10:56:09;;;;;;;4.88;1.30;;;6.80;83.30;;;;;;4916696;29;20028;-70
2021/01/26 10:58:35;;;;;;;10.93;1.55;;;6.80;82.70;;;;;;4916818;29;20176;-70
2021/01/26 11:01:02;;;;;;;5.13;1.02;;;6.90;82.50;;;;;;4916337;29;20055;-70
2021/01/26 11:03:27;;;;;;;5.63;1.30;;;6.80;82.60;;;;;;4916419;29;20024;-70
2021/01/26 11:05:53;;;;;;;1.88;0.90;;;6.90;82.70;;;;;;4917909;29;20087;-73
2021/01/26 11:08:19;;;;;;;2.83;0.90;;;6.90;82.30;;;;;;4916632;29;20020;-70
2021/01/26 11:10:45;;;;;;;4.53;1.10;;;6.90;82.30;;;;;;4917785;29;20032;-70
2021/01/26 11:13:11;;;;;;;3.83;1.25;;;7.00;82.10;;;;;;4916489;29;20020;-71
2021/01/26 11:15:37;;;;;;;3.75;1.00;;;7.00;81.90;;;;;;4917609;29;20425;-70
2021/01/26 11:18:04;;;;;;;2.05;0.80;;;7.00;81.80;;;;;;4901036;29;20024;-70
2021/01/26 11:20:29;;;;;;;4.10;1.10;;;7.00;81.80;;;;;;4916786;29;20063;-70
2021/01/26 11:22:55;;;;;;;3.03;1.02;;;7.10;81.80;;;;;;4917912;29;20024;-70
2021/01/26 11:25:24;;;;;;;3.05;0.93;;;7.10;81.70;;;;;;4916188;29;20523;-70
2021/01/26 11:27:50;;;;;;;5.50;1.08;;;7.20;81.30;;;;;;4915971;29;20039;-70
2021/01/26 11:30:16;;;;;;;6.57;1.15;;;7.20;81.30;;;;;;4917220;29;20473;-70
2021/01/26 11:32:42;;;;;;;6.40;1.20;;;7.20;81.40;;;;;;4916620;29;20354;-70
2021/01/26 11:35:12;;;;;;;4.63;1.88;;;7.20;81.20;;;;;;4917228;29;20056;-70
2021/01/26 11:37:37;;;;;;;3.88;1.45;;;7.30;81.20;;;;;;4915785;29;20027;-71
2021/01/26 11:40:06;;;;;;;4.63;1.55;;;7.30;80.90;;;;;;4899969;29;20115;-70
2021/01/26 11:42:31;;;;;;;4.43;1.20;;;7.40;80.60;;;;;;4917120;29;20024;-70
2021/01/26 11:44:57;;;;;;;3.65;1.08;;;7.40;80.50;;;;;;4917378;29;20032;-70
2021/01/26 11:47:23;;;;;;;3.50;1.88;;;7.40;80.30;;;;;;4917327;29;20040;-71
2021/01/26 11:49:48;;;;;;;4.38;1.35;;;7.40;80.30;;;;;;4899928;29;20119;-71
2021/01/26 11:52:14;;;;;;;2.55;1.10;;;7.50;80.20;;;;;;4917157;29;20433;-71
2021/01/26 11:54:40;;;;;;;11.75;1.60;;;7.50;80.30;;;;;;4915940;29;20032;-71
2021/01/26 11:57:05;;;;;;;5.13;1.60;;;7.60;80.10;;;;;;4915787;29;20087;-70
2021/01/26 11:59:31;;;;;;;3.08;1.10;;;7.70;80.00;;;;;;4915901;29;20557;-70
2021/01/26 12:01:58;;;;;;;2.58;1.10;;;7.70;79.80;;;;;;4916901;29;20496;-71
2021/01/26 12:04:23;;;;;;;3.40;1.15;;;7.70;80.00;;;;;;4915476;29;20076;-70
2021/01/26 12:06:49;;;;;;;4.43;1.38;;;7.80;79.60;;;;;;4916705;29;20380;-70
2021/01/26 12:09:15;;;;;;;4.30;1.42;;;7.80;79.20;;;;;;4916871;29;20124;-69
2021/01/26 12:11:41;;;;;;;3.67;1.15;;;7.80;78.80;;;;;;4916914;29;20481;-70
2021/01/26 12:14:07;;;;;;;3.80;1.33;;;7.80;78.80;;;;;;4916657;29;20511;-71
2021/01/26 12:16:33;;;;;;;4.72;1.13;;;7.80;79.10;;;;;;4915341;29;20039;-70
2021/01/26 12:18:59;;;;;;;3.58;1.15;;;7.80;79.00;;;;;;4916884;29;20024;-69
2021/01/26 12:21:25;;;;;;;2.35;0.95;;;7.80;78.70;;;;;;4917006;29;20031;-70
2021/01/26 12:23:50;;;;;;;3.47;1.10;;;7.80;78.30;;;;;;4916700;29;20424;-70
2021/01/26 12:26:16;;;;;;;6.38;1.10;;;7.90;78.30;;;;;;4917010;29;20103;-71
2021/01/26 12:28:43;;;;;;;2.55;0.82;;;7.90;77.90;;;;;;4915475;29;20034;-70
2021/01/26 12:31:09;;;;;;;2.63;1.02;;;7.80;77.90;;;;;;4915498;29;20028;-70
2021/01/26 12:33:35;;;;;;;3.22;1.15;;;7.80;77.70;;;;;;4915394;29;20373;-71
2021/01/26 12:36:01;;;;;;;3.60;1.10;;;7.80;77.90;;;;;;4916685;29;20027;-71
2021/01/26 12:38:27;;;;;;;5.90;0.90;;;7.80;78.00;;;;;;4915258;29;20024;-70
2021/01/26 12:40:53;;;;;;;4.25;1.23;;;7.80;78.00;;;;;;4915237;29;20420;-70
2021/01/26 12:43:19;;;;;;;4.15;1.00;;;7.80;77.80;;;;;;4915159;29;20036;-70
2021/01/26 12:45:45;;;;;;;5.03;0.77;;;7.70;77.90;;;;;;4915192;29;20525;-71
2021/01/26 12:48:11;;;;;;;5.43;1.25;;;7.70;78.00;;;;;;4915050;29;20028;-70
2021/01/26 12:50:37;;;;;;;4.93;1.08;;;7.70;78.10;;;;;;4915006;29;20559;-71
2021/01/26 12:53:04;;;;;;;6.55;1.17;;;7.60;77.90;;;;;;4916196;29;20380;-71
2021/01/26 12:55:29;;;;;;;4.32;0.90;;;7.60;77.60;;;;;;4916207;29;20428;-70
2021/01/26 12:57:55;;;;;;;3.00;0.82;;;7.60;77.70;;;;;;4916765;29;20032;-71
2021/01/26 13:00:23;;;;;;;4.72;1.10;;;7.60;77.90;;;;;;4914871;29;20074;-71
2021/01/26 13:02:49;;;;;;;3.33;1.02;;;7.70;78.00;;;;;;4916195;29;20043;-71
2021/01/26 13:05:17;;;;;;;4.30;0.98;;;7.70;77.90;;;;;;4918585;29;20338;-71
2021/01/26 13:07:43;;;;;;;4.63;1.20;;;7.80;78.00;;;;;;4918590;29;20115;-71
2021/01/26 13:10:10;;;;;;;4.15;1.10;;;7.80;77.60;;;;;;4903142;29;20028;-71
2021/01/26 13:12:37;;;;;;;5.03;1.10;;;7.70;77.50;;;;;;4918424;29;20031;-71
2021/01/26 13:15:04;;;;;;;3.70;1.45;;;7.70;77.20;;;;;;4918281;29;20040;-71
2021/01/26 13:17:29;;;;;;;7.25;1.70;;;7.70;77.40;;;;;;4918545;29;20118;-71
2021/01/26 13:19:55;;;;;;;2.42;0.90;;;7.70;77.30;;;;;;4918419;29;20114;-71
2021/01/26 13:22:21;;;;;;;4.28;1.17;;;7.70;77.40;;;;;;4902687;29;20024;-71
2021/01/26 13:24:46;;;;;;;5.25;1.17;;;7.60;77.40;;;;;;4918129;29;20039;-70
2021/01/26 13:27:13;;;;;;;4.70;1.15;;;7.70;77.50;;;;;;4919626;29;20055;-71
2021/01/26 13:29:39;;;;;;;3.42;1.10;;;7.60;77.40;;;;;;4919398;29;20051;-70
2021/01/26 13:32:24;;;;;;;4.10;1.23;;;7.60;77.10;;;;;;4919506;29;20067;-70
2021/01/26 13:34:50;;;;;;;4.32;1.33;;;7.60;77.30;;;;;;4919279;29;20032;-70